Decoded Metar for KELM (ELMIRA in NY, USA) (IATA:ELM) | Meteo·Mobile Aviation Weather
aviador You're here:

KELM Decoded Metar

ELMIRA in NY, USA
Report Time2018-08-21 04:53:00
UTC Time2018-08-21 05:39:57
Flight Rules vfr VFR
WindCalm
Visibility9999 m
Phenomena:N/A
Clouds:Overcast 049 Hf
Expected CloudBase > 1,600 ft AGL from Temp-Dew spread
Ceiling4,900 ft
Temp21°C (ISA +8)
Dew Point17°C (78% RH)
QNH1019 hPa
Density Alt1,978 ft
Elevation991 ft
Report Wrong Elevation
Raw Report
KELM 210453Z AUTO 00000KT 10SM OVC049 21/17 A3008 RMK AO2 SLP180
T02060167 402560150 TSNO=

Extra information for KELM:More info

Metar Taf Metar & Taf Last 4 Metars F.Rules Stats Wind Profile Meteogram Temp Stats Airport Information Weather charts Add Link Nearby VenuesMetar ALERT Operation Metar Decoded Social comments

AIRNAV info for KELM